الصفحة الرئيسية
METAR-TAF:

METAR-TAF

مطار :

مطار وارسو فريدريك شوبان

وارسو, بولندا

دائرة عرض: 52-10N, خط طول: 020-58E, ارتفاع: 106 متر

مراقبة الطقس الحالي

تاريخ ووقت الإصدار 11 دقيقة قبل الساعة 01:00UTC
ريح 7 عقدة من الجنوب الشرقي
درجة الحرارة 16°درجة مئوية
الرطوبة 88%
ضغط 1019 hPa
الرؤية 10 كم أو أكثر
الغيوم لا تقل 1500 م ولا وجود لمزنة ركامية السحاب الأسود

METAR: EPWA 170100Z 14007KT CAVOK 16/14 Q1019 NOSIG

زمن: 03:11 (01:11 UTC)

توقعات

تاريخ ووقت الإصدار 1ساعة و 41 دقيقة قبل الساعة 23:30UTC
التوقعات صالحة من17 الساعة 00 UTC إلى 17 الساعة 24 UTC
ريح 4 عقدة من الشرق
الرؤية 10 كم أو أكثر
الغيوم لا تقل 1500 م ولا وجود لمزنة ركامية السحاب الأسود

TAF: EPWA 162330Z 1700/1724 10004KT CAVOK

أرصاد الطقس والتوقعات من أكثر من 4000 مطار (تقارير الطقس للمطار METAR والتنبؤ بالطقس بالمطارTAF).

المحطات المتاحة هي النقط الصفراء والحمراء على الخريطة.

حرك المؤشر فوق النقطة لمعرفة اسم المحطة.

ثم انقر لمعرفة أرصاد وتوقعات الطقس.

لتغيير الخارطة: اضغط على الأزرار الخضراء مع رمز الصليب الأسود للتكبير. على الزر الأخضر مع شرطة للتصغير، أو على الأسهم الخضراء للخرائط المجاورة.


METAR-TAF: